createdAt,value
2022-08-12T00:02:10.433Z,101170.45
2022-08-12T00:30:38.394Z,101165.42
2022-08-12T00:54:57.545Z,101148.06
2022-08-12T00:57:28.990Z,101141.93
2022-08-12T01:15:18.405Z,101147.77
2022-08-12T01:30:14.615Z,101150.09
2022-08-12T01:32:49.528Z,101151.67
2022-08-12T01:48:17.199Z,101137.80
2022-08-12T01:51:04.586Z,101136.80
2022-08-12T02:13:03.557Z,101108.00
2022-08-12T02:15:44.254Z,101116.84
2022-08-12T02:30:35.336Z,101104.61
2022-08-12T02:39:22.326Z,101101.78
2022-08-12T02:48:08.469Z,101106.66
2022-08-12T02:50:47.194Z,101098.73
2022-08-12T03:31:10.496Z,101122.65
2022-08-12T03:33:44.178Z,101119.95
2022-08-12T03:49:32.354Z,101131.39
2022-08-12T04:05:21.575Z,101157.66
2022-08-12T04:07:58.394Z,101153.19
2022-08-12T04:10:51.074Z,101151.33
2022-08-12T04:13:23.397Z,101156.58
2022-08-12T04:15:52.546Z,101155.60
2022-08-12T04:46:55.355Z,101162.61
2022-08-12T04:49:25.367Z,101162.41
2022-08-12T05:13:50.923Z,101158.78
2022-08-12T05:28:26.536Z,101167.40
2022-08-12T05:30:56.017Z,101166.52
2022-08-12T05:39:22.448Z,101173.84
2022-08-12T05:41:51.010Z,101157.83
2022-08-12T05:44:19.588Z,101157.47
2022-08-12T05:46:48.241Z,101161.29
2022-08-12T05:49:17.230Z,101156.27
2022-08-12T05:51:45.754Z,101158.46
2022-08-12T05:54:15.853Z,101158.30
2022-08-12T05:56:45.045Z,101160.70
2022-08-12T05:59:13.753Z,101156.81
2022-08-12T06:02:12.011Z,101152.95
2022-08-12T06:04:31.689Z,101153.41
2022-08-12T06:07:02.119Z,101154.91
2022-08-12T06:09:50.669Z,101152.09
2022-08-12T06:12:26.768Z,101150.91
2022-08-12T06:14:55.966Z,101147.87
2022-08-12T06:17:24.946Z,101141.80
2022-08-12T06:20:27.228Z,101141.80
2022-08-12T06:22:42.980Z,101142.50
2022-08-12T06:25:18.366Z,101149.32
2022-08-12T06:28:06.693Z,101149.02
2022-08-12T06:30:39.332Z,101151.23
2022-08-12T06:33:22.338Z,101148.30
2022-08-12T06:35:57.264Z,101160.23
2022-08-12T06:38:28.517Z,101163.93
2022-08-12T06:41:17.533Z,101153.35
2022-08-12T06:44:04.599Z,101158.20
2022-08-12T06:46:36.112Z,101149.30
2022-08-12T06:49:06.294Z,101157.09
2022-08-12T06:51:35.085Z,101149.67
2022-08-12T06:54:04.030Z,101149.98
2022-08-12T06:57:02.426Z,101157.34
2022-08-12T06:59:23.471Z,101155.89
2022-08-12T07:01:52.227Z,101153.77
2022-08-12T07:04:38.718Z,101158.85
2022-08-12T07:07:09.927Z,101145.91
2022-08-12T07:09:59.986Z,101138.89
2022-08-12T07:12:28.746Z,101148.87
2022-08-12T07:14:58.649Z,101147.00
2022-08-12T07:17:31.083Z,101148.81
2022-08-12T07:20:04.330Z,101144.28
2022-08-12T07:22:33.984Z,101141.36
2022-08-12T07:25:21.034Z,101142.89
2022-08-12T07:27:53.807Z,101145.01
2022-08-12T07:30:22.838Z,101140.53
2022-08-12T07:32:51.780Z,101139.33
2022-08-12T07:35:21.281Z,101133.84
2022-08-12T07:37:52.658Z,101136.86
2022-08-12T07:40:21.644Z,101145.53
2022-08-12T07:42:50.668Z,101146.11
2022-08-12T07:45:20.168Z,101146.73
2022-08-12T07:47:50.682Z,101148.18
2022-08-12T07:50:23.741Z,101145.16
2022-08-12T07:52:52.958Z,101144.81
2022-08-12T07:55:21.514Z,101145.13
2022-08-12T07:57:57.168Z,101144.86
2022-08-12T08:00:26.523Z,101143.56
2022-08-12T08:02:55.695Z,101148.48
2022-08-12T08:05:26.608Z,101140.78
2022-08-12T08:08:01.160Z,101143.77
2022-08-12T08:10:30.521Z,101135.22
2022-08-12T08:13:04.445Z,101141.71
2022-08-12T08:16:01.174Z,101140.30
2022-08-12T08:18:26.876Z,101135.94
2022-08-12T08:20:56.836Z,101139.20
2022-08-12T08:23:56.514Z,101141.58
2022-08-12T08:26:27.841Z,101138.95
2022-08-12T08:28:57.444Z,101151.26
2022-08-12T08:31:27.461Z,101144.24
2022-08-12T08:34:09.264Z,101144.73
2022-08-12T08:36:46.007Z,101150.36
2022-08-12T08:39:16.586Z,101147.60
2022-08-12T08:42:13.870Z,101151.67
2022-08-12T08:44:49.729Z,101147.33
2022-08-12T08:47:26.447Z,101144.02
2022-08-12T08:50:00.506Z,101142.53
2022-08-12T08:52:40.433Z,101151.00
2022-08-12T08:55:13.336Z,101152.59
2022-08-12T08:57:44.775Z,101156.78
2022-08-12T09:00:16.347Z,101146.11
2022-08-12T09:02:49.266Z,101141.81
2022-08-12T09:05:27.756Z,101139.89
2022-08-12T09:08:12.208Z,101141.03
2022-08-12T09:10:45.245Z,101131.42
2022-08-12T09:16:23.145Z,101127.42
2022-08-12T09:18:53.160Z,101135.06
2022-08-12T09:21:23.141Z,101128.46
2022-08-12T09:23:57.654Z,101138.16
2022-08-12T09:26:30.393Z,101139.28
2022-08-12T09:29:00.684Z,101141.18
2022-08-12T09:32:06.379Z,101138.84
2022-08-12T09:34:26.572Z,101144.30
2022-08-12T09:37:02.440Z,101139.47
2022-08-12T09:40:05.245Z,101136.86
2022-08-12T09:43:11.059Z,101140.98
2022-08-12T09:46:12.100Z,101133.03
2022-08-12T09:48:34.922Z,101130.92
2022-08-12T09:51:16.794Z,101126.66
2022-08-12T09:54:08.562Z,101128.98
2022-08-12T09:57:02.843Z,101127.98
2022-08-12T10:00:13.590Z,101125.74
2022-08-12T10:02:44.706Z,101118.49
2022-08-12T10:05:13.021Z,101114.84
2022-08-12T10:07:42.151Z,101117.77
2022-08-12T10:10:22.307Z,101112.75
2022-08-12T10:13:34.736Z,101111.94
2022-08-12T10:16:06.099Z,101113.78
2022-08-12T12:09:17.404Z,101080.16
2022-08-12T14:10:28.365Z,101020.83
2022-08-12T14:12:58.285Z,101023.87
2022-08-12T14:15:36.771Z,101014.03
2022-08-12T14:18:13.101Z,101017.71
2022-08-12T14:20:43.711Z,101019.77
2022-08-12T14:24:04.879Z,101019.58
2022-08-12T14:26:11.772Z,101016.08
2022-08-12T14:28:45.228Z,101010.78
2022-08-12T14:31:31.409Z,101010.90
2022-08-12T14:34:04.779Z,101013.69
2022-08-12T14:36:34.124Z,101008.34
2022-08-12T14:39:04.466Z,101011.73
2022-08-12T14:41:36.869Z,101007.47
2022-08-12T14:44:57.232Z,101002.13
2022-08-12T14:47:08.660Z,101005.00
2022-08-12T14:50:33.996Z,101003.41
2022-08-12T14:53:12.176Z,100999.22
2022-08-12T14:58:05.231Z,100978.05
2022-08-12T15:00:55.168Z,100979.23
2022-08-12T15:03:27.646Z,100984.90
2022-08-12T15:06:39.786Z,100993.77
2022-08-12T15:09:11.906Z,100992.16
2022-08-12T15:11:55.652Z,100993.56
2022-08-12T15:14:30.158Z,100975.92
2022-08-12T15:17:00.637Z,100974.31
2022-08-12T15:20:31.178Z,100977.42
2022-08-12T15:22:37.596Z,100976.14
2022-08-12T15:25:09.779Z,100973.16
2022-08-12T15:28:20.753Z,100980.34
2022-08-12T15:30:32.656Z,100976.14
2022-08-12T15:33:12.655Z,100984.16
2022-08-12T15:35:53.280Z,100979.22
2022-08-12T15:38:26.663Z,100972.19
2022-08-12T15:40:59.044Z,100977.54
2022-08-12T15:43:51.522Z,100990.67
2022-08-12T15:46:18.349Z,101002.99
2022-08-12T15:48:51.141Z,100989.63
2022-08-12T15:51:59.747Z,100989.63
2022-08-12T15:54:30.859Z,100992.59
2022-08-12T15:57:10.549Z,100991.52
2022-08-12T16:00:03.969Z,101005.97
2022-08-12T16:02:29.854Z,101024.19
2022-08-12T16:04:59.515Z,101029.48
2022-08-12T16:07:31.204Z,101027.97
2022-08-12T16:10:06.605Z,101031.47
2022-08-12T16:12:41.757Z,101025.75
2022-08-12T16:15:12.131Z,101013.34
2022-08-12T16:18:19.070Z,101025.70
2022-08-12T16:20:33.692Z,101023.09
2022-08-12T16:23:26.957Z,101024.38
2022-08-12T16:26:06.197Z,101027.78
2022-08-12T16:28:44.260Z,101033.05
2022-08-12T16:31:23.238Z,101022.73
2022-08-12T16:33:59.534Z,101015.93
2022-08-12T16:36:30.003Z,101009.08
2022-08-12T16:39:01.247Z,101002.28
2022-08-12T16:41:38.116Z,100982.59
2022-08-12T16:44:09.231Z,100991.28
2022-08-12T16:46:38.491Z,101006.86
2022-08-12T16:52:21.896Z,101019.02
2022-08-12T16:54:56.944Z,101008.69
2022-08-12T17:00:24.534Z,101012.25
